Time;durP1;ratioP1;P1;durP2;ratioP2;P2;SDS_P1;SDS_P2;PMS_P1;PMS_P2;Temp;Humidity;BMP_temperature;BMP_pressure;BME280_temperature;BME280_humidity;BME280_pressure;Samples;Min_cycle;Max_cycle;Signal;HPM_P1;HPM_P2
2022/09/21 00:00:52;;;;;;;17.30;10.70;;;4.80;1.00;;;;;;6145271;23;20507;-90
2022/09/21 00:03:41;;;;;;;26.83;12.20;;;5.00;1.00;;;;;;6173757;23;20029;-89
2022/09/21 00:06:36;;;;;;;23.77;12.02;;;5.10;99.90;;;;;;6177290;23;20059;-85
2022/09/21 00:09:34;;;;;;;22.23;12.55;;;5.20;99.90;;;;;;6160118;23;20089;-84
2022/09/21 00:12:59;;;;;;;;;;;;;;;;;;;;;
2022/09/21 00:16:21;;;;;;;17.98;10.88;;;5.20;99.90;;;;;;6301007;22;20026;-92
2022/09/21 00:20:04;;;;;;;;;;;;;;;;;;;;;
2022/09/21 00:24:03;;;;;;;;;;;;;;;;;;;;;
2022/09/21 00:31:50;;;;;;;;;;;;;;;;;;;;;
2022/09/21 00:36:14;;;;;;;;;;;;;;;;;;;;;
2022/09/21 00:39:00;;;;;;;;;;;;;;;;;;;;;
2022/09/21 00:42:37;;;;;;;24.77;12.05;;;4.40;99.90;;;;;;6003796;23;20300;-93
2022/09/21 00:45:58;;;;;;;24.77;12.48;;;4.50;1.00;;;;;;5985910;23;20152;-92
2022/09/21 00:49:35;;;;;;;26.25;12.05;;;4.60;1.00;;;;;;5982623;24;20032;-93
2022/09/21 00:53:03;;;;;;;25.75;11.90;;;4.60;1.00;;;;;;5888248;24;20041;-93
2022/09/21 00:56:35;;;;;;;;;;;;;;;;;;;;;
2022/09/21 01:00:35;;;;;;;;;;;;;;;;;;;;;
2022/09/21 01:03:34;;;;;;;;;;;;;;;;;;;;;
2022/09/21 01:06:55;;;;;;;26.92;12.70;;;4.30;1.00;;;;;;5929469;24;20029;-90
2022/09/21 01:14:44;;;;;;;;;;;;;;;;;;;;;
2022/09/21 01:18:50;;;;;;;;;;;;;;;;;;;;;
2022/09/21 01:23:01;;;;;;;;;;;;;;;;;;;;;
2022/09/21 01:26:19;;;;;;;27.52;12.57;;;4.00;99.90;;;;;;5954320;23;20025;-90
2022/09/21 01:33:34;;;;;;;29.80;13.50;;;4.20;99.90;;;;;;6041739;23;20457;-91
2022/09/21 01:36:38;;;;;;;;;;;;;;;;;;;;;
2022/09/21 01:40:28;;;;;;;27.50;12.82;;;4.30;99.90;;;;;;5956146;24;20189;-90
2022/09/21 01:43:54;;;;;;;23.27;11.98;;;4.20;99.90;;;;;;5937436;24;20025;-91
2022/09/21 01:47:25;;;;;;;;;;;;;;;;;;;;;
2022/09/21 01:50:53;;;;;;;;;;;;;;;;;;;;;
2022/09/21 01:55:15;;;;;;;26.75;12.25;;;3.70;99.90;;;;;;5822590;24;20045;-92
2022/09/21 01:59:30;;;;;;;;;;;;;;;;;;;;;
2022/09/21 02:13:43;;;;;;;;;;;;;;;;;;;;;
2022/09/21 02:17:06;;;;;;;;;;;;;;;;;;;;;
2022/09/21 02:20:31;;;;;;;;;;;;;;;;;;;;;
2022/09/21 02:23:55;;;;;;;26.10;12.48;;;3.90;99.90;;;;;;6000860;23;20044;-90
2022/09/21 02:27:31;;;;;;;27.75;12.70;;;3.90;99.90;;;;;;5982303;24;20028;-92
2022/09/21 02:30:29;;;;;;;23.05;13.20;;;3.90;99.90;;;;;;5984043;24;20024;-84
2022/09/21 02:33:35;;;;;;;27.38;13.55;;;3.90;99.90;;;;;;5982193;24;20108;-84
2022/09/21 02:36:34;;;;;;;28.70;13.65;;;3.90;99.90;;;;;;5981132;24;20436;-84
2022/09/21 02:40:14;;;;;;;21.88;12.23;;;3.80;99.90;;;;;;5982674;24;20103;-84
2022/09/21 02:43:36;;;;;;;;;;;3.70;99.90;;;;;;6008735;23;20054;-84
2022/09/21 02:46:26;;;;;;;26.83;13.98;;;3.50;99.90;;;;;;6039090;23;19962;-84
2022/09/21 02:49:37;;;;;;;28.98;15.20;;;3.60;1.00;;;;;;6039358;23;20031;-84
2022/09/21 02:52:26;;;;;;;31.02;15.63;;;3.70;1.00;;;;;;6041338;23;20614;-84
2022/09/21 02:55:19;;;;;;;31.77;16.25;;;3.80;1.00;;;;;;6038962;23;20027;-83
2022/09/21 02:58:10;;;;;;;34.63;17.55;;;3.70;1.00;;;;;;6028896;23;20046;-84
2022/09/21 03:00:58;;;;;;;37.83;16.63;;;3.70;1.00;;;;;;6144340;23;20032;-83
2022/09/21 03:03:49;;;;;;;32.10;17.08;;;3.70;1.00;;;;;;6160479;23;20155;-83
2022/09/21 03:06:37;;;;;;;39.65;17.88;;;3.80;1.00;;;;;;6184699;22;20020;-82
2022/09/21 03:09:26;;;;;;;32.75;15.88;;;3.80;1.00;;;;;;6276247;22;20027;-83
2022/09/21 03:12:15;;;;;;;25.60;13.55;;;3.70;1.00;;;;;;6276434;22;20027;-83
2022/09/21 03:15:06;;;;;;;34.22;15.18;;;3.50;1.00;;;;;;6277046;22;20053;-83
2022/09/21 03:17:53;;;;;;;30.08;14.73;;;3.40;1.00;;;;;;6277483;22;20024;-83
2022/09/21 03:20:46;;;;;;;33.53;15.40;;;3.40;1.00;;;;;;6278334;22;20386;-83
2022/09/21 03:23:33;;;;;;;33.80;14.68;;;3.30;1.00;;;;;;6256315;22;20091;-83
2022/09/21 03:26:21;;;;;;;35.65;14.98;;;3.20;1.00;;;;;;6276707;22;20020;-83
2022/09/21 03:29:08;;;;;;;42.35;15.98;;;3.20;1.00;;;;;;6276250;22;20024;-82
2022/09/21 03:31:55;;;;;;;34.35;14.65;;;3.30;1.00;;;;;;6277474;22;20027;-82
2022/09/21 03:34:42;;;;;;;33.78;15.52;;;3.30;1.00;;;;;;6275423;22;20027;-83
2022/09/21 03:37:29;;;;;;;31.42;14.77;;;3.30;1.00;;;;;;6277174;22;20050;-82
2022/09/21 03:40:19;;;;;;;31.70;14.35;;;3.30;1.00;;;;;;6256746;22;20486;-82
2022/09/21 03:43:06;;;;;;;27.63;13.80;;;3.20;1.00;;;;;;6275317;22;20038;-84
2022/09/21 03:45:54;;;;;;;32.38;14.65;;;3.20;1.00;;;;;;6278040;22;20030;-81
2022/09/21 03:48:41;;;;;;;33.67;14.75;;;3.20;1.00;;;;;;6277292;22;20074;-84
2022/09/21 03:51:31;;;;;;;32.60;14.15;;;3.10;1.00;;;;;;6277905;22;20038;-83
2022/09/21 03:54:18;;;;;;;28.00;13.52;;;3.10;1.00;;;;;;6280791;22;20055;-82
2022/09/21 03:57:05;;;;;;;27.95;12.40;;;3.00;1.00;;;;;;6276736;22;20027;-82
2022/09/21 03:59:53;;;;;;;32.33;14.05;;;2.90;1.00;;;;;;6276898;22;20053;-83
2022/09/21 04:02:40;;;;;;;24.70;13.63;;;2.90;1.00;;;;;;6278309;22;20024;-84
2022/09/21 04:05:27;;;;;;;32.63;14.63;;;3.00;1.00;;;;;;6278253;22;20020;-84
2022/09/21 04:08:14;;;;;;;24.98;12.88;;;3.00;1.00;;;;;;6276428;22;20023;-83
2022/09/21 04:11:08;;;;;;;34.08;14.10;;;3.00;1.00;;;;;;6276728;22;20478;-83
2022/09/21 04:13:58;;;;;;;33.92;14.30;;;2.90;1.00;;;;;;6254517;22;20034;-83
2022/09/21 04:16:45;;;;;;;27.35;13.30;;;2.90;1.00;;;;;;6277162;22;20023;-82
2022/09/21 04:19:32;;;;;;;31.00;15.20;;;2.90;1.00;;;;;;6277456;22;20020;-82
2022/09/21 04:22:19;;;;;;;32.85;15.15;;;2.90;1.00;;;;;;6278196;22;20023;-81
2022/09/21 04:25:07;;;;;;;26.77;14.32;;;3.00;1.00;;;;;;6278183;22;20038;-82
2022/09/21 04:27:54;;;;;;;27.67;14.88;;;2.90;1.00;;;;;;6276337;22;20030;-82
2022/09/21 04:30:41;;;;;;;36.95;17.35;;;2.90;1.00;;;;;;6279387;22;20024;-81
2022/09/21 04:33:29;;;;;;;31.50;16.85;;;3.00;1.00;;;;;;6277160;22;20526;-81
2022/09/21 04:36:17;;;;;;;37.60;18.05;;;3.00;1.00;;;;;;6280000;22;20386;-81
2022/09/21 04:39:05;;;;;;;38.22;19.80;;;2.90;1.00;;;;;;6253768;22;20019;-82
2022/09/21 04:41:52;;;;;;;51.63;21.60;;;2.90;1.00;;;;;;6279058;22;20077;-82
2022/09/21 04:44:41;;;;;;;38.78;19.83;;;2.90;1.00;;;;;;6278194;22;20024;-82
2022/09/21 04:47:30;;;;;;;41.92;19.83;;;2.80;1.00;;;;;;6279659;22;20019;-82
2022/09/21 04:50:18;;;;;;;45.60;21.48;;;2.80;1.00;;;;;;6278956;22;20079;-82
2022/09/21 04:53:08;;;;;;;44.45;20.92;;;2.70;1.00;;;;;;6277383;22;20027;-82
2022/09/21 04:55:56;;;;;;;41.95;20.83;;;2.70;1.00;;;;;;6279323;22;20026;-83
2022/09/21 04:58:44;;;;;;;49.85;21.00;;;2.60;1.00;;;;;;6278899;22;20460;-83
2022/09/21 05:01:31;;;;;;;54.80;21.85;;;2.60;1.00;;;;;;6279381;22;20023;-82
2022/09/21 05:04:19;;;;;;;52.58;21.85;;;2.60;1.00;;;;;;6282640;22;20135;-83
2022/09/21 05:07:06;;;;;;;50.78;20.88;;;2.60;1.00;;;;;;6277822;22;20050;-82
2022/09/21 05:10:02;;;;;;;58.60;21.88;;;2.70;1.00;;;;;;6256410;22;20466;-82
2022/09/21 05:12:51;;;;;;;52.22;21.67;;;2.70;1.00;;;;;;6279076;22;20055;-81
2022/09/21 05:15:38;;;;;;;50.10;20.77;;;2.80;1.00;;;;;;6276550;22;20098;-84
2022/09/21 05:18:25;;;;;;;50.58;23.55;;;2.80;1.00;;;;;;6280303;22;20296;-81
2022/09/21 05:21:14;;;;;;;54.67;23.75;;;2.90;1.00;;;;;;6281150;22;20107;-82
2022/09/21 05:24:01;;;;;;;50.75;21.85;;;2.90;1.00;;;;;;6279383;22;20081;-82
2022/09/21 05:26:48;;;;;;;54.35;22.02;;;2.80;1.00;;;;;;6277942;22;20030;-82
2022/09/21 05:29:41;;;;;;;54.28;22.45;;;2.80;1.00;;;;;;6277218;22;20038;-82
2022/09/21 05:32:37;;;;;;;59.58;23.33;;;2.80;1.00;;;;;;6258343;22;20111;-83
2022/09/21 05:35:41;;;;;;;58.90;22.70;;;3.00;1.00;;;;;;6281220;22;20027;-82
2022/09/21 05:38:28;;;;;;;60.45;22.67;;;3.10;1.00;;;;;;6280108;22;20030;-82
2022/09/21 05:41:15;;;;;;;46.83;20.75;;;3.20;1.00;;;;;;6290170;22;20026;-83
2022/09/21 05:44:03;;;;;;;42.38;18.48;;;3.20;1.00;;;;;;6290097;22;20028;-81
2022/09/21 05:47:29;;;;;;;41.92;17.17;;;3.20;1.00;;;;;;6292577;22;20030;-81
2022/09/21 05:50:25;;;;;;;41.50;17.05;;;3.10;1.00;;;;;;6288544;22;20038;-81
2022/09/21 05:53:59;;;;;;;34.92;16.77;;;3.00;1.00;;;;;;6282341;22;20032;-80
2022/09/21 05:56:59;;;;;;;34.33;16.02;;;3.00;1.00;;;;;;6296437;22;20038;-82
2022/09/21 05:59:46;;;;;;;34.45;15.32;;;3.10;1.00;;;;;;6302244;22;20012;-82
2022/09/21 06:02:58;;;;;;;36.78;16.95;;;3.10;1.00;;;;;;6297384;22;20310;-85
2022/09/21 06:05:45;;;;;;;43.65;18.33;;;3.10;1.00;;;;;;6290913;22;20030;-85
2022/09/21 06:08:34;;;;;;;46.53;21.48;;;3.30;1.00;;;;;;6289780;22;20047;-84
2022/09/21 06:11:21;;;;;;;51.53;22.00;;;3.50;1.00;;;;;;6279868;22;20038;-84
2022/09/21 06:14:08;;;;;;;55.38;24.65;;;3.70;1.00;;;;;;6282758;22;20028;-84
2022/09/21 06:16:55;;;;;;;58.15;25.92;;;3.80;1.00;;;;;;6259654;22;20046;-85
2022/09/21 06:19:42;;;;;;;76.45;28.52;;;3.90;1.00;;;;;;6277134;22;20307;-83
2022/09/21 06:22:30;;;;;;;70.30;29.10;;;4.00;1.00;;;;;;6278685;22;20034;-83
2022/09/21 06:25:19;;;;;;;56.70;26.65;;;4.00;1.00;;;;;;6276975;22;20023;-85
2022/09/21 06:28:09;;;;;;;51.45;26.55;;;4.10;1.00;;;;;;6255642;22;20027;-83
2022/09/21 06:30:57;;;;;;;53.67;28.85;;;4.20;1.00;;;;;;6284248;22;20034;-83
2022/09/21 06:33:44;;;;;;;59.00;30.63;;;4.30;1.00;;;;;;6262703;22;20031;-86
2022/09/21 06:36:36;;;;;;;65.95;30.90;;;4.50;1.00;;;;;;6282420;22;20024;-85
2022/09/21 06:39:23;;;;;;;57.90;28.00;;;4.60;1.00;;;;;;6259045;22;20030;-85
2022/09/21 06:42:10;;;;;;;57.35;28.23;;;4.70;1.00;;;;;;6283273;22;20113;-85
2022/09/21 06:45:00;;;;;;;57.92;29.42;;;4.90;1.00;;;;;;6280792;22;20042;-84
2022/09/21 06:47:47;;;;;;;86.32;32.28;;;5.00;1.00;;;;;;6260702;22;20051;-84
2022/09/21 06:50:34;;;;;;;79.70;35.55;;;5.10;1.00;;;;;;6281045;22;20043;-84
2022/09/21 06:53:23;;;;;;;77.72;34.35;;;5.30;1.00;;;;;;6258556;22;20023;-83
2022/09/21 06:56:11;;;;;;;75.65;34.00;;;5.50;1.00;;;;;;6277999;22;20027;-84
2022/09/21 06:58:58;;;;;;;77.95;36.05;;;5.60;1.00;;;;;;6278799;22;20073;-85
2022/09/21 07:01:47;;;;;;;77.40;34.47;;;5.90;1.00;;;;;;6256688;22;20429;-85
2022/09/21 07:04:37;;;;;;;58.05;27.92;;;6.10;1.00;;;;;;6259461;22;20036;-85
2022/09/21 07:07:25;;;;;;;71.50;34.22;;;6.20;1.00;;;;;;6273238;22;20126;-85
2022/09/21 07:10:12;;;;;;;62.20;30.73;;;6.50;1.00;;;;;;6278917;22;20038;-85
2022/09/21 07:13:08;;;;;;;56.63;27.10;;;6.70;1.00;;;;;;6277025;22;20411;-84
2022/09/21 07:15:55;;;;;;;48.03;25.17;;;6.90;1.00;;;;;;6277004;22;20028;-84
2022/09/21 07:18:42;;;;;;;49.05;26.05;;;7.00;1.00;;;;;;6279673;22;20085;-84
2022/09/21 07:21:30;;;;;;;48.63;23.40;;;7.20;99.90;;;;;;6277058;22;20337;-84
2022/09/21 07:24:17;;;;;;;38.20;19.40;;;7.30;99.90;;;;;;6278297;22;20023;-84
2022/09/21 07:27:04;;;;;;;33.10;17.33;;;7.40;1.00;;;;;;6278036;22;20015;-84
2022/09/21 07:29:52;;;;;;;24.30;14.32;;;7.50;99.90;;;;;;6253700;22;20028;-84
2022/09/21 07:32:39;;;;;;;23.55;13.88;;;7.70;99.90;;;;;;6278084;22;20028;-83
2022/09/21 07:35:26;;;;;;;24.20;12.65;;;7.90;99.90;;;;;;6279354;22;20077;-86
2022/09/21 07:38:13;;;;;;;17.98;11.68;;;8.00;99.90;;;;;;6260703;22;20034;-87
2022/09/21 07:41:06;;;;;;;16.80;9.68;;;8.30;99.90;;;;;;6290457;22;20107;-86
2022/09/21 07:43:53;;;;;;;16.63;9.93;;;8.40;1.00;;;;;;6286496;22;20023;-84
2022/09/21 07:46:41;;;;;;;16.10;8.98;;;8.60;1.00;;;;;;6292377;22;20024;-83
2022/09/21 07:49:34;;;;;;;15.75;8.52;;;8.70;99.90;;;;;;6295618;22;20024;-86
2022/09/21 07:56:29;;;;;;;14.30;8.27;;;9.10;99.90;;;;;;6300618;22;20008;-85
2022/09/21 07:59:17;;;;;;;14.20;8.20;;;9.20;30.00;;;;;;6267507;22;20079;-86
2022/09/21 08:02:04;;;;;;;12.73;7.35;;;9.40;1.00;;;;;;6287501;22;20081;-84
2022/09/21 08:04:52;;;;;;;15.50;6.68;;;9.50;99.90;;;;;;6281254;22;20369;-86
2022/09/21 08:07:40;;;;;;;12.13;5.43;;;9.70;99.90;;;;;;6280062;22;20023;-83
2022/09/21 08:10:28;;;;;;;8.73;4.78;;;10.20;90.60;;;;;;6279625;22;20024;-87
2022/09/21 08:13:16;;;;;;;10.82;4.65;;;10.70;1.00;;;;;;6256853;22;20046;-86
2022/09/21 08:16:03;;;;;;;8.48;4.55;;;11.50;1.00;;;;;;6278234;22;20430;-85
2022/09/21 08:18:51;;;;;;;7.93;4.20;;;12.30;99.90;;;;;;6253811;22;20325;-84
2022/09/21 08:21:38;;;;;;;9.05;3.72;;;13.30;99.90;;;;;;6280228;22;20115;-84
2022/09/21 08:24:27;;;;;;;7.82;3.15;;;14.40;99.90;;;;;;6279637;22;20081;-84
2022/09/21 08:27:19;;;;;;;4.80;2.77;;;15.00;99.90;;;;;;6255419;22;20318;-85
2022/09/21 08:30:12;;;;;;;5.68;2.83;;;15.20;99.90;;;;;;6277662;22;20027;-86
2022/09/21 08:32:59;;;;;;;6.07;2.58;;;15.50;99.90;;;;;;6277947;22;20031;-82
2022/09/21 08:36:01;;;;;;;5.72;2.53;;;15.90;97.50;;;;;;6281901;22;20330;-84
2022/09/21 08:38:51;;;;;;;4.65;2.50;;;16.40;96.90;;;;;;6281895;22;20027;-86
2022/09/21 08:41:59;;;;;;;6.35;2.70;;;16.70;61.00;;;;;;6277768;22;20118;-83
2022/09/21 08:44:58;;;;;;;4.55;1.92;;;16.80;48.20;;;;;;6255744;22;20081;-88
2022/09/21 08:48:03;;;;;;;7.13;2.33;;;16.40;42.90;;;;;;6275919;22;20096;-85
2022/09/21 08:50:56;;;;;;;4.25;1.98;;;16.60;34.00;;;;;;6238671;22;20047;-83
2022/09/21 08:53:46;;;;;;;;;;;17.50;28.40;;;;;;6280630;22;20420;-85
2022/09/21 08:56:35;;;;;;;4.75;1.75;;;17.70;20.20;;;;;;6280289;22;19919;-85
2022/09/21 08:59:45;;;;;;;5.95;1.70;;;18.00;15.10;;;;;;6264419;22;20035;-84
2022/09/21 09:03:00;;;;;;;1.52;1.20;;;18.00;8.60;;;;;;6260370;22;20069;-86
2022/09/21 09:05:53;;;;;;;5.32;1.73;;;18.00;2.80;;;;;;6282825;22;20023;-90
2022/09/21 09:08:59;;;;;;;4.30;1.30;;;18.60;1.00;;;;;;6285516;22;20027;-87
2022/09/21 09:11:56;;;;;;;4.95;1.48;;;18.10;1.00;;;;;;6282525;22;20024;-84
2022/09/21 09:15:14;;;;;;;3.70;1.60;;;17.80;1.00;;;;;;6281673;22;20053;-84
2022/09/21 09:18:35;;;;;;;6.00;1.33;;;18.70;1.00;;;;;;6281288;22;20098;-85
2022/09/21 09:21:38;;;;;;;5.18;1.52;;;19.20;1.00;;;;;;6282299;22;20047;-85
2022/09/21 09:24:48;;;;;;;1.67;0.90;;;20.00;1.00;;;;;;6280167;22;20077;-84
2022/09/21 09:27:41;;;;;;;4.70;1.58;;;19.40;1.00;;;;;;6281092;22;20015;-82
2022/09/21 09:30:32;;;;;;;2.38;1.00;;;19.40;1.00;;;;;;6280416;22;20027;-83
2022/09/21 09:33:37;;;;;;;2.28;1.02;;;19.00;1.00;;;;;;6278985;22;20498;-84
2022/09/21 09:36:31;;;;;;;3.15;0.90;;;19.30;1.00;;;;;;6282141;22;20051;-84
2022/09/21 09:39:42;;;;;;;2.25;1.15;;;19.50;1.00;;;;;;6278582;22;20023;-82
2022/09/21 09:42:47;;;;;;;2.72;0.70;;;20.00;1.00;;;;;;6282105;22;20024;-85
2022/09/21 09:46:11;;;;;;;8.30;1.75;;;19.90;1.00;;;;;;6279704;22;20035;-85
2022/09/21 09:49:02;;;;;;;3.25;0.90;;;20.40;1.00;;;;;;6260660;22;20024;-85
2022/09/21 09:51:50;;;;;;;3.15;0.70;;;19.40;1.00;;;;;;6278882;22;20110;-84
2022/09/21 09:54:37;;;;;;;4.18;0.75;;;18.80;1.00;;;;;;6279285;22;20027;-84
2022/09/21 09:57:32;;;;;;;2.50;0.77;;;19.50;1.00;;;;;;6280951;22;20031;-85
2022/09/21 10:00:21;;;;;;;1.20;0.60;;;19.60;1.00;;;;;;6278888;22;20107;-84
2022/09/21 10:03:26;;;;;;;3.40;0.70;;;20.10;1.00;;;;;;6276314;22;20146;-85
2022/09/21 10:06:30;;;;;;;1.92;0.68;;;20.70;1.00;;;;;;6277282;22;20035;-85
2022/09/21 10:09:28;;;;;;;1.85;0.80;;;21.10;1.00;;;;;;6254120;22;20103;-85
2022/09/21 10:12:22;;;;;;;5.20;1.20;;;21.40;1.00;;;;;;6275680;22;20023;-82
2022/09/21 10:15:10;;;;;;;3.33;0.98;;;21.70;1.00;;;;;;6276285;22;20098;-82
2022/09/21 10:18:14;;;;;;;4.05;0.85;;;21.70;1.00;;;;;;6257137;22;20029;-83
2022/09/21 10:21:09;;;;;;;1.88;0.75;;;21.90;1.00;;;;;;6277642;22;20023;-83
2022/09/21 10:24:12;;;;;;;3.42;0.82;;;22.30;1.00;;;;;;6277209;22;20024;-82
2022/09/21 10:27:05;;;;;;;1.73;0.50;;;21.50;1.00;;;;;;6279984;22;20020;-85
2022/09/21 10:29:52;;;;;;;1.80;0.80;;;21.80;1.00;;;;;;6258529;22;20498;-84
2022/09/21 10:32:56;;;;;;;1.63;0.82;;;21.90;1.00;;;;;;6276716;22;20450;-89
2022/09/21 10:35:53;;;;;;;1.85;1.00;;;21.80;1.00;;;;;;6276377;22;20034;-85
2022/09/21 10:38:40;;;;;;;2.50;1.10;;;21.00;1.00;;;;;;6278836;22;20024;-87
2022/09/21 10:41:29;;;;;;;1.15;0.77;;;20.40;1.00;;;;;;6278335;22;20411;-83
2022/09/21 10:44:19;;;;;;;2.22;0.80;;;20.20;1.00;;;;;;6257282;22;20442;-89
2022/09/21 10:47:28;;;;;;;3.05;0.82;;;20.70;1.00;;;;;;6279513;22;20130;-84
2022/09/21 10:50:30;;;;;;;1.65;0.68;;;20.00;1.00;;;;;;6278837;22;20343;-84
2022/09/21 10:53:31;;;;;;;1.15;0.70;;;20.60;1.00;;;;;;6276678;22;20037;-84
2022/09/21 10:56:19;;;;;;;2.65;1.00;;;20.70;1.00;;;;;;6276075;22;20105;-85
2022/09/21 10:59:16;;;;;;;2.10;0.82;;;20.10;1.00;;;;;;6276570;22;20032;-84
2022/09/21 11:02:32;;;;;;;6.18;1.20;;;19.00;1.00;;;;;;6275207;22;20081;-84
2022/09/21 11:05:27;;;;;;;4.60;0.90;;;18.50;1.00;;;;;;6275518;22;20047;-86
2022/09/21 11:08:44;;;;;;;2.63;1.00;;;19.30;1.00;;;;;;6256397;22;20033;-84
2022/09/21 11:11:47;;;;;;;4.13;1.10;;;19.00;1.00;;;;;;6278176;22;20028;-85
2022/09/21 11:14:47;;;;;;;;;;;17.50;1.00;;;;;;6257126;22;20042;-84
2022/09/21 11:17:47;;;;;;;3.08;0.80;;;17.70;1.00;;;;;;6276455;22;19926;-83
2022/09/21 11:20:51;;;;;;;5.55;1.02;;;19.00;1.00;;;;;;6275658;22;20019;-88
2022/09/21 11:23:38;;;;;;;3.95;0.70;;;18.70;1.00;;;;;;6280113;22;20024;-87
2022/09/21 11:26:50;;;;;;;1.77;0.82;;;18.80;1.00;;;;;;6253504;22;20095;-87
2022/09/21 11:29:56;;;;;;;1.45;0.65;;;19.00;1.00;;;;;;6257230;22;20043;-85
2022/09/21 11:32:46;;;;;;;1.83;0.90;;;17.70;1.00;;;;;;6276123;22;20051;-84
2022/09/21 11:35:58;;;;;;;4.25;0.85;;;17.10;1.00;;;;;;6277298;22;20023;-86
2022/09/21 11:39:10;;;;;;;1.50;0.70;;;16.60;1.00;;;;;;6278465;22;20162;-82
2022/09/21 11:42:26;;;;;;;1.67;0.77;;;17.30;1.00;;;;;;6256322;22;20094;-86
2022/09/21 11:45:42;;;;;;;3.05;1.17;;;19.00;1.00;;;;;;6274378;22;20508;-86
2022/09/21 11:48:58;;;;;;;7.07;1.08;;;19.40;1.00;;;;;;6276878;22;20081;-89
2022/09/21 11:51:54;;;;;;;2.88;0.60;;;19.50;1.00;;;;;;6280303;22;20085;-86
2022/09/21 11:55:06;;;;;;;1.55;0.68;;;19.50;1.00;;;;;;6287906;22;20024;-85
2022/09/21 11:58:11;;;;;;;2.88;0.60;;;20.60;1.00;;;;;;6255103;22;20046;-83
2022/09/21 12:01:06;;;;;;;1.77;0.43;;;21.50;1.00;;;;;;6260965;22;20026;-86
2022/09/21 12:04:19;;;;;;;;;;;21.40;1.00;;;;;;6256471;22;20074;-84
2022/09/21 12:07:44;;;;;;;1.45;0.50;;;21.10;1.00;;;;;;6277367;22;20303;-82
2022/09/21 12:11:11;;;;;;;2.13;0.80;;;21.50;1.00;;;;;;6253211;22;20107;-85
2022/09/21 12:14:17;;;;;;;2.33;0.50;;;20.70;1.00;;;;;;6269765;22;20411;-83
2022/09/21 12:17:26;;;;;;;3.40;0.75;;;18.30;1.00;;;;;;6276406;22;20051;-85
2022/09/21 12:20:16;;;;;;;1.92;0.88;;;18.40;1.00;;;;;;6278217;22;20023;-82
2022/09/21 12:23:11;;;;;;;1.65;0.50;;;19.90;1.00;;;;;;6276654;22;20110;-83
2022/09/21 12:26:01;;;;;;;3.00;0.60;;;21.20;1.00;;;;;;6275467;22;20315;-86
2022/09/21 12:28:59;;;;;;;2.60;0.60;;;21.10;1.00;;;;;;6255810;22;20122;-85
2022/09/21 12:32:00;;;;;;;3.28;0.77;;;19.70;1.00;;;;;;6275782;22;20103;-84
2022/09/21 12:35:06;;;;;;;1.02;0.80;;;18.40;1.00;;;;;;6275018;22;20035;-83
2022/09/21 12:38:25;;;;;;;1.45;0.70;;;18.10;1.00;;;;;;6254948;22;20434;-84
2022/09/21 12:41:25;;;;;;;1.45;0.70;;;17.80;1.00;;;;;;6275264;22;20430;-82
2022/09/21 12:44:52;;;;;;;2.50;0.80;;;17.10;1.00;;;;;;6252007;22;20027;-85
2022/09/21 12:48:13;;;;;;;2.50;0.70;;;17.50;1.00;;;;;;6256359;22;20024;-89
2022/09/21 12:51:31;;;;;;;3.28;0.70;;;18.30;1.00;;;;;;6278054;22;20527;-84
2022/09/21 12:54:36;;;;;;;4.05;1.17;;;16.80;1.00;;;;;;6256991;22;20365;-84
2022/09/21 12:57:42;;;;;;;2.72;0.60;;;16.00;1.00;;;;;;6274039;22;20345;-84
2022/09/21 13:00:59;;;;;;;3.03;0.90;;;17.70;1.00;;;;;;6257933;22;20023;-82
2022/09/21 13:04:04;;;;;;;0.85;0.45;;;20.00;1.00;;;;;;6277248;22;20434;-85
2022/09/21 13:07:07;;;;;;;2.38;0.63;;;21.00;1.00;;;;;;6275491;22;20423;-80
2022/09/21 13:09:56;;;;;;;1.90;0.70;;;20.50;1.00;;;;;;6255397;22;20094;-83
2022/09/21 13:12:51;;;;;;;2.92;0.60;;;19.00;1.00;;;;;;6278194;22;20020;-81
2022/09/21 13:15:47;;;;;;;2.40;0.55;;;18.50;1.00;;;;;;6275142;22;20260;-81
2022/09/21 13:18:39;;;;;;;1.65;0.68;;;19.60;1.00;;;;;;6274548;22;20023;-82
2022/09/21 13:21:28;;;;;;;4.55;0.40;;;21.10;1.00;;;;;;6252223;22;20023;-82
2022/09/21 13:24:29;;;;;;;3.65;0.50;;;22.00;1.00;;;;;;6274655;22;20103;-80
2022/09/21 13:27:16;;;;;;;1.88;0.60;;;22.90;1.00;;;;;;6271774;22;20024;-81
2022/09/21 13:30:34;;;;;;;2.28;0.68;;;23.40;1.00;;;;;;6275112;22;20103;-82
2022/09/21 13:33:22;;;;;;;3.92;0.45;;;23.50;1.00;;;;;;6276003;22;20095;-82
2022/09/21 13:36:31;;;;;;;2.55;0.65;;;23.70;1.00;;;;;;6274917;22;20081;-83
2022/09/21 13:39:20;;;;;;;0.75;0.47;;;23.30;1.00;;;;;;6276538;22;20457;-83
2022/09/21 13:42:31;;;;;;;1.30;0.77;;;22.70;1.00;;;;;;6277068;22;20095;-83
2022/09/21 13:45:21;;;;;;;2.53;0.50;;;23.60;1.00;;;;;;6279562;22;20105;-82
2022/09/21 13:48:18;;;;;;;4.63;0.60;;;21.80;1.00;;;;;;6279989;22;20358;-83
2022/09/21 13:51:08;;;;;;;4.60;0.70;;;20.10;1.00;;;;;;6257707;22;20028;-82
2022/09/21 13:53:58;;;;;;;2.13;0.90;;;21.00;1.00;;;;;;6276693;22;20038;-83
2022/09/21 13:56:45;;;;;;;2.28;0.65;;;21.80;1.00;;;;;;6275437;22;20131;-82
2022/09/21 13:59:34;;;;;;;2.72;0.85;;;22.60;1.00;;;;;;6276862;22;20043;-85
2022/09/21 14:02:24;;;;;;;2.65;0.65;;;22.80;1.00;;;;;;6275830;22;20054;-82
2022/09/21 14:05:42;;;;;;;3.65;0.90;;;22.60;1.00;;;;;;6276369;22;20035;-80
2022/09/21 14:08:45;;;;;;;2.50;0.88;;;20.80;1.00;;;;;;6292893;22;20052;-80
2022/09/21 14:11:39;;;;;;;1.27;0.43;;;19.10;1.00;;;;;;6277176;22;20055;-82
2022/09/21 14:14:31;;;;;;;2.05;0.73;;;17.50;1.00;;;;;;6273861;22;20070;-83
2022/09/21 14:17:54;;;;;;;;;;;16.80;1.00;;;;;;6276163;22;20028;-82
2022/09/21 14:21:07;;;;;;;3.40;0.70;;;16.10;1.00;;;;;;6154952;23;19991;-82
2022/09/21 14:24:08;;;;;;;1.85;0.57;;;18.00;1.00;;;;;;6274036;22;20443;-83
2022/09/21 14:27:42;;;;;;;3.42;0.77;;;19.70;1.00;;;;;;6275236;22;20024;-85
2022/09/21 14:30:36;;;;;;;0.70;0.55;;;20.00;1.00;;;;;;6172484;22;20077;-82
2022/09/21 14:33:34;;;;;;;2.33;0.70;;;21.10;1.00;;;;;;6293844;22;20059;-81
2022/09/21 14:36:29;;;;;;;2.80;0.52;;;21.10;1.00;;;;;;6269651;22;20296;-84
2022/09/21 14:39:29;;;;;;;7.68;0.70;;;20.80;1.00;;;;;;6286241;22;20023;-82
2022/09/21 14:42:22;;;;;;;0.95;0.47;;;20.80;1.00;;;;;;6263918;22;20079;-80
2022/09/21 14:45:16;;;;;;;;;;;20.50;1.00;;;;;;6274636;22;20068;-84
2022/09/21 14:48:16;;;;;;;1.27;0.65;;;20.60;1.00;;;;;;6293962;22;19925;-81
2022/09/21 14:51:37;;;;;;;2.58;0.70;;;21.10;1.00;;;;;;6302541;22;20011;-82
2022/09/21 14:54:43;;;;;;;1.10;0.80;;;20.90;1.00;;;;;;6284569;22;20101;-82
2022/09/21 14:58:04;;;;;;;0.75;0.60;;;20.50;1.00;;;;;;6259551;22;20023;-81
2022/09/21 15:00:53;;;;;;;1.10;0.60;;;19.30;1.00;;;;;;6279872;22;20062;-82
2022/09/21 15:03:47;;;;;;;1.80;0.90;;;18.00;1.00;;;;;;6277768;22;20032;-82
2022/09/21 15:13:18;;;;;;;0.90;0.60;;;18.80;1.00;;;;;;6276197;22;20371;-80
2022/09/21 15:16:16;;;;;;;1.77;0.80;;;19.10;1.00;;;;;;6277957;22;20081;-80
2022/09/21 15:19:42;;;;;;;1.20;0.60;;;18.70;1.00;;;;;;6278278;22;20023;-79
2022/09/21 15:22:30;;;;;;;1.30;0.60;;;18.60;1.00;;;;;;6267266;22;20108;-81
2022/09/21 15:25:18;;;;;;;1.20;0.75;;;18.90;1.00;;;;;;6253061;22;20078;-82
2022/09/21 15:28:10;;;;;;;1.65;0.73;;;18.90;1.00;;;;;;6278562;22;20466;-80
2022/09/21 15:30:57;;;;;;;;;;;19.30;1.00;;;;;;6276057;22;20027;-83
2022/09/21 15:33:49;;;;;;;0.88;0.52;;;19.50;1.00;;;;;;6254924;22;20263;-82
2022/09/21 15:36:41;;;;;;;1.83;0.70;;;19.80;1.00;;;;;;6277517;22;20031;-82
2022/09/21 15:39:31;;;;;;;1.08;0.68;;;19.10;1.00;;;;;;6275812;22;20281;-82
2022/09/21 15:42:21;;;;;;;6.15;0.80;;;18.90;1.00;;;;;;6255284;22;20020;-83
2022/09/21 15:45:15;;;;;;;4.35;1.55;;;18.60;1.00;;;;;;6278679;22;20031;-80
2022/09/21 15:48:12;;;;;;;3.88;1.77;;;17.60;1.00;;;;;;6276466;22;20455;-82
2022/09/21 15:51:27;;;;;;;5.68;2.22;;;16.50;1.00;;;;;;6275545;22;20027;-78
2022/09/21 15:54:33;;;;;;;8.65;4.63;;;16.70;1.00;;;;;;6256443;22;20364;-84
2022/09/21 15:57:35;;;;;;;3.10;1.00;;;16.90;1.00;;;;;;6278319;22;20027;-84
2022/09/21 16:00:31;;;;;;;1.75;1.05;;;17.30;1.00;;;;;;6275842;22;20098;-82
2022/09/21 16:03:21;;;;;;;1.48;0.70;;;17.40;1.00;;;;;;6275873;22;20087;-83
2022/09/21 16:06:25;;;;;;;3.60;0.90;;;17.10;1.00;;;;;;6276853;22;20036;-82
2022/09/21 16:09:30;;;;;;;4.63;0.82;;;17.20;1.00;;;;;;6275026;22;20051;-83
2022/09/21 16:12:36;;;;;;;2.80;0.77;;;17.40;1.00;;;;;;6276779;22;20054;-82
2022/09/21 16:15:30;;;;;;;2.08;0.77;;;17.60;1.00;;;;;;6275321;22;20028;-81
2022/09/21 16:18:41;;;;;;;0.80;0.60;;;17.20;1.00;;;;;;6275780;22;20374;-81
2022/09/21 16:21:36;;;;;;;0.90;0.73;;;16.60;1.00;;;;;;6253162;22;20024;-80
2022/09/21 16:24:23;;;;;;;1.98;1.00;;;15.70;1.00;;;;;;6255964;22;20016;-81
2022/09/21 16:27:16;;;;;;;2.92;0.95;;;14.90;1.00;;;;;;6253742;22;20028;-83
2022/09/21 16:30:03;;;;;;;1.90;0.80;;;14.20;1.00;;;;;;6274697;22;20025;-81
2022/09/21 16:32:51;;;;;;;0.98;0.75;;;13.80;1.00;;;;;;6254982;22;20059;-80
2022/09/21 16:35:39;;;;;;;1.27;0.80;;;13.50;1.00;;;;;;6254335;22;20047;-80
2022/09/21 16:38:26;;;;;;;1.77;0.90;;;13.30;1.00;;;;;;6254437;22;20038;-81
2022/09/21 16:41:13;;;;;;;3.85;0.90;;;13.10;1.00;;;;;;6278210;22;20284;-84
2022/09/21 16:44:01;;;;;;;3.50;1.02;;;13.00;1.00;;;;;;6275483;22;20020;-82